createdAt,value
2019-02-26T00:00:07.631Z,10.23
2019-02-26T00:02:46.531Z,10.60
2019-02-26T00:05:17.307Z,13.70
2019-02-26T00:07:49.126Z,13.93
2019-02-26T00:10:16.381Z,13.43
2019-02-26T00:12:45.664Z,16.00
2019-02-26T00:15:15.387Z,13.60
2019-02-26T00:17:45.890Z,11.80
2019-02-26T00:20:17.703Z,10.90
2019-02-26T00:22:47.403Z,10.63
2019-02-26T00:25:17.970Z,17.57
2019-02-26T00:27:49.563Z,12.63
2019-02-26T00:30:18.888Z,14.80
2019-02-26T00:32:48.214Z,14.20
2019-02-26T00:35:19.097Z,11.87
2019-02-26T00:37:50.895Z,13.63
2019-02-26T00:40:20.170Z,14.90
2019-02-26T00:42:52.223Z,14.63
2019-02-26T00:45:24.677Z,13.13
2019-02-26T00:47:51.672Z,16.90
2019-02-26T00:50:21.619Z,13.93
2019-02-26T00:52:52.355Z,14.60
2019-02-26T00:55:25.218Z,16.43
2019-02-26T00:57:56.799Z,15.50
2019-02-26T01:00:26.299Z,13.43
2019-02-26T01:02:55.626Z,13.53
2019-02-26T01:05:25.283Z,14.57
2019-02-26T01:07:54.523Z,14.17
2019-02-26T01:10:24.175Z,14.50
2019-02-26T01:12:53.404Z,13.63
2019-02-26T01:15:22.789Z,14.90
2019-02-26T01:17:54.418Z,14.93
2019-02-26T01:20:25.665Z,12.80
2019-02-26T01:22:54.640Z,15.43
2019-02-26T01:25:23.906Z,13.53
2019-02-26T01:27:55.728Z,15.40
2019-02-26T01:30:27.030Z,13.63
2019-02-26T01:32:57.535Z,16.23
2019-02-26T01:35:28.229Z,15.43
2019-02-26T01:37:59.839Z,14.80
2019-02-26T01:40:28.471Z,16.23
2019-02-26T01:42:58.517Z,13.87
2019-02-26T01:45:30.447Z,14.17
2019-02-26T01:47:59.561Z,13.57
2019-02-26T01:50:30.745Z,15.03
2019-02-26T01:53:01.072Z,16.03
2019-02-26T01:55:30.552Z,13.60
2019-02-26T01:58:00.203Z,14.97
2019-02-26T02:00:29.919Z,15.93
2019-02-26T02:02:59.247Z,18.57
2019-02-26T02:05:29.653Z,17.27
2019-02-26T02:07:59.989Z,14.57
2019-02-26T02:10:29.267Z,16.23
2019-02-26T02:13:00.292Z,13.83
2019-02-26T02:15:29.685Z,14.87
2019-02-26T02:17:59.972Z,13.77
2019-02-26T02:20:30.787Z,11.70
2019-02-26T02:23:01.035Z,13.20
2019-02-26T02:25:33.177Z,16.33
2019-02-26T02:28:02.826Z,12.40
2019-02-26T02:30:35.413Z,13.40
2019-02-26T02:33:04.373Z,13.27
2019-02-26T02:35:33.759Z,17.50
2019-02-26T02:38:04.904Z,13.07
2019-02-26T02:40:34.100Z,15.27
2019-02-26T02:43:07.533Z,15.10
2019-02-26T02:45:35.373Z,16.57
2019-02-26T02:48:06.276Z,12.00
2019-02-26T02:50:35.901Z,15.00
2019-02-26T02:53:05.202Z,14.67
2019-02-26T02:55:34.887Z,17.17
2019-02-26T02:58:04.580Z,15.63
2019-02-26T03:00:34.490Z,18.33
2019-02-26T03:03:04.270Z,18.73
2019-02-26T03:05:35.140Z,19.03
2019-02-26T03:08:05.069Z,18.77
2019-02-26T03:10:36.648Z,16.17
2019-02-26T03:13:07.373Z,17.20
2019-02-26T03:15:36.426Z,17.40
2019-02-26T03:18:07.174Z,16.07
2019-02-26T03:20:40.280Z,18.17
2019-02-26T03:23:15.078Z,15.53
2019-02-26T03:25:41.443Z,17.47
2019-02-26T03:28:12.095Z,16.63
2019-02-26T03:30:44.332Z,13.57
2019-02-26T03:33:13.285Z,13.70
2019-02-26T03:35:42.633Z,18.37
2019-02-26T03:38:12.478Z,13.10
2019-02-26T03:40:42.175Z,15.67
2019-02-26T03:43:13.132Z,13.13
2019-02-26T03:45:47.382Z,18.30
2019-02-26T03:48:13.460Z,17.60
2019-02-26T03:50:44.608Z,16.07
2019-02-26T03:53:14.041Z,15.67
2019-02-26T03:55:44.021Z,17.67
2019-02-26T03:58:13.457Z,18.63
2019-02-26T04:00:43.936Z,18.27
2019-02-26T04:03:17.150Z,17.27
2019-02-26T04:05:45.621Z,19.00
2019-02-26T04:08:16.667Z,20.00
2019-02-26T04:10:47.960Z,14.63
2019-02-26T04:13:16.856Z,17.53
2019-02-26T04:15:46.125Z,16.33
2019-02-26T04:18:15.484Z,19.40
2019-02-26T04:20:44.810Z,15.70
2019-02-26T04:23:16.711Z,17.17
2019-02-26T04:26:35.680Z,16.47
2019-02-26T04:29:35.365Z,16.23
2019-02-26T04:32:53.139Z,19.70
2019-02-26T04:35:33.074Z,19.97
2019-02-26T04:38:55.671Z,14.00
2019-02-26T04:41:47.733Z,15.90
2019-02-26T04:44:52.392Z,13.73
2019-02-26T04:47:24.316Z,17.47
2019-02-26T04:49:54.408Z,16.80
2019-02-26T04:52:24.869Z,19.33
2019-02-26T04:54:54.253Z,16.80
2019-02-26T04:57:23.663Z,17.83
2019-02-26T04:59:55.473Z,15.27
2019-02-26T05:02:24.712Z,17.50
2019-02-26T05:04:54.403Z,14.70
2019-02-26T05:07:23.750Z,15.93
2019-02-26T05:09:55.529Z,12.20
2019-02-26T05:12:25.300Z,15.07
2019-02-26T05:14:56.142Z,15.00
2019-02-26T05:17:29.645Z,12.10
2019-02-26T05:19:56.875Z,15.30
2019-02-26T05:22:29.777Z,13.33
2019-02-26T05:24:57.397Z,16.03
2019-02-26T05:27:26.789Z,14.77
2019-02-26T05:29:56.389Z,15.07
2019-02-26T05:32:29.410Z,16.23
2019-02-26T05:34:56.737Z,14.50
2019-02-26T05:37:28.853Z,18.07
2019-02-26T05:39:57.669Z,16.57
2019-02-26T05:42:27.040Z,22.50
2019-02-26T05:44:59.066Z,16.47
2019-02-26T05:47:27.515Z,15.67
2019-02-26T05:49:56.930Z,15.07
2019-02-26T05:52:27.243Z,13.43
2019-02-26T05:54:57.565Z,17.83
2019-02-26T05:57:32.346Z,14.33
2019-02-26T05:59:57.843Z,17.20
2019-02-26T06:02:27.519Z,12.93
2019-02-26T06:04:57.016Z,12.67
2019-02-26T06:07:28.094Z,15.67
2019-02-26T06:09:59.227Z,14.80
2019-02-26T06:12:32.391Z,19.13
2019-02-26T06:15:02.141Z,14.17
2019-02-26T06:17:30.785Z,17.90
2019-02-26T06:20:11.456Z,18.67
2019-02-26T06:22:40.818Z,15.20
2019-02-26T06:25:14.940Z,15.70
2019-02-26T06:27:41.461Z,15.30
2019-02-26T06:30:12.439Z,14.67
2019-02-26T06:32:44.604Z,15.37
2019-02-26T06:35:16.545Z,13.83
2019-02-26T06:37:45.823Z,15.60
2019-02-26T06:40:15.552Z,15.73
2019-02-26T06:42:44.916Z,14.63
2019-02-26T06:45:16.507Z,14.23
2019-02-26T06:47:47.889Z,16.30
2019-02-26T06:50:18.865Z,18.30
2019-02-26T06:52:50.608Z,15.97
2019-02-26T06:55:19.478Z,19.87
2019-02-26T06:57:50.815Z,14.73
2019-02-26T07:00:23.854Z,15.37
2019-02-26T07:02:51.227Z,12.50
2019-02-26T07:05:23.926Z,14.77
2019-02-26T07:07:52.595Z,14.90
2019-02-26T07:10:25.978Z,11.63
2019-02-26T07:12:53.478Z,15.00
2019-02-26T07:15:28.766Z,13.30
2019-02-26T07:18:00.091Z,13.30
2019-02-26T07:20:34.016Z,12.97
2019-02-26T07:23:00.768Z,12.83
2019-02-26T07:25:31.797Z,14.80
2019-02-26T07:28:02.855Z,13.17
2019-02-26T07:30:35.342Z,14.83
2019-02-26T07:33:07.579Z,11.80
2019-02-26T07:35:37.358Z,11.73
2019-02-26T07:38:07.574Z,11.43
2019-02-26T07:40:38.627Z,12.63
2019-02-26T07:43:09.841Z,13.53
2019-02-26T07:45:39.118Z,11.07
2019-02-26T07:48:08.600Z,14.47
2019-02-26T07:50:40.585Z,15.93
2019-02-26T07:53:09.264Z,17.57
2019-02-26T07:55:41.945Z,16.00
2019-02-26T07:58:11.561Z,13.67
2019-02-26T08:00:42.878Z,13.03
2019-02-26T08:03:11.796Z,13.30
2019-02-26T08:05:41.177Z,12.17
2019-02-26T08:08:12.005Z,14.33
2019-02-26T08:10:42.841Z,14.07
2019-02-26T08:13:12.689Z,12.93
2019-02-26T08:15:42.675Z,12.80
2019-02-26T08:18:12.090Z,13.87
2019-02-26T08:20:41.746Z,16.63
2019-02-26T08:23:11.039Z,15.17
2019-02-26T08:25:40.243Z,11.47
2019-02-26T08:28:09.583Z,12.37
2019-02-26T08:30:42.305Z,12.30
2019-02-26T08:33:11.029Z,12.30
2019-02-26T08:35:40.218Z,12.93
2019-02-26T08:38:09.573Z,12.23
2019-02-26T08:40:39.139Z,13.40
2019-02-26T08:43:08.581Z,11.07
2019-02-26T08:45:37.989Z,12.70
2019-02-26T08:48:07.397Z,11.53
2019-02-26T08:50:38.844Z,11.70
2019-02-26T08:53:07.885Z,12.23
2019-02-26T08:55:37.987Z,11.63
2019-02-26T08:58:07.772Z,14.50
2019-02-26T09:00:38.444Z,13.50
2019-02-26T09:03:08.828Z,13.53
2019-02-26T09:05:39.406Z,12.83
2019-02-26T09:08:10.864Z,11.30
2019-02-26T09:10:41.342Z,16.07
2019-02-26T09:13:13.836Z,12.97
2019-02-26T09:15:43.222Z,13.97
2019-02-26T09:18:12.720Z,12.80
2019-02-26T09:20:44.978Z,11.23
2019-02-26T09:23:18.832Z,13.03
2019-02-26T09:25:46.427Z,11.53
2019-02-26T09:28:17.040Z,12.57
2019-02-26T09:30:46.868Z,9.73
2019-02-26T09:33:16.258Z,11.53
2019-02-26T09:35:47.469Z,11.57
2019-02-26T09:38:17.642Z,11.17
2019-02-26T09:40:49.871Z,11.10
2019-02-26T09:43:19.677Z,13.03
2019-02-26T09:45:50.597Z,11.27
2019-02-26T09:48:21.961Z,12.70
2019-02-26T09:50:51.940Z,10.23
2019-02-26T09:53:21.686Z,12.10
2019-02-26T09:55:51.444Z,12.73
2019-02-26T09:58:22.893Z,9.43
2019-02-26T10:00:54.094Z,9.07
2019-02-26T10:03:23.147Z,10.20
2019-02-26T10:05:53.276Z,10.13
2019-02-26T10:08:25.356Z,10.20
2019-02-26T10:10:56.936Z,9.03
2019-02-26T10:13:27.741Z,8.53
2019-02-26T10:15:59.211Z,11.33
2019-02-26T10:18:30.343Z,11.20
2019-02-26T10:20:59.773Z,10.03
2019-02-26T10:23:32.998Z,12.27
2019-02-26T10:26:02.800Z,9.33
2019-02-26T10:28:35.213Z,7.33
2019-02-26T10:31:04.868Z,8.03
2019-02-26T10:33:35.782Z,8.03
2019-02-26T10:36:05.392Z,9.07
2019-02-26T10:38:36.530Z,10.30
2019-02-26T10:41:06.436Z,9.43
2019-02-26T10:43:36.032Z,9.13
2019-02-26T10:46:05.759Z,9.30
2019-02-26T10:48:35.115Z,8.03
2019-02-26T10:51:06.719Z,7.13
2019-02-26T10:53:39.188Z,8.13
2019-02-26T10:56:08.892Z,6.47
2019-02-26T10:58:40.825Z,8.13
2019-02-26T11:01:11.203Z,6.30
2019-02-26T11:03:43.425Z,7.47
2019-02-26T11:06:15.890Z,6.77
2019-02-26T11:08:42.956Z,6.23
2019-02-26T11:11:13.961Z,7.13
2019-02-26T11:13:46.997Z,8.70
2019-02-26T11:16:21.859Z,5.30
2019-02-26T11:18:47.702Z,7.23
2019-02-26T11:21:17.107Z,5.50
2019-02-26T11:23:46.524Z,5.57
2019-02-26T11:26:18.106Z,5.27
2019-02-26T11:28:47.930Z,5.67
2019-02-26T11:31:20.503Z,6.37
2019-02-26T11:33:48.497Z,4.90
2019-02-26T11:36:18.141Z,5.60
2019-02-26T11:38:47.516Z,5.30
2019-02-26T11:41:16.927Z,7.07
2019-02-26T11:43:46.883Z,5.83
2019-02-26T11:46:16.198Z,7.50
2019-02-26T11:48:47.687Z,6.33
2019-02-26T11:51:18.426Z,5.97
2019-02-26T11:53:49.212Z,5.20
2019-02-26T11:56:21.304Z,5.77
2019-02-26T11:58:50.073Z,5.63
2019-02-26T12:01:19.816Z,4.90
2019-02-26T12:03:49.497Z,5.27
2019-02-26T12:06:19.285Z,9.73
2019-02-26T12:08:50.078Z,7.10
2019-02-26T12:11:20.419Z,6.60
2019-02-26T12:13:53.021Z,6.40
2019-02-26T12:16:22.465Z,6.60
2019-02-26T12:18:51.833Z,4.67
2019-02-26T12:21:21.199Z,5.93
2019-02-26T12:23:50.835Z,4.23
2019-02-26T12:26:22.190Z,4.67
2019-02-26T12:28:52.356Z,7.00
2019-02-26T12:31:24.539Z,5.77
2019-02-26T12:33:53.825Z,5.03
2019-02-26T12:36:23.678Z,4.20
2019-02-26T12:38:56.341Z,5.27
2019-02-26T12:41:26.846Z,5.73
2019-02-26T12:43:59.334Z,7.37
2019-02-26T12:46:30.908Z,5.43
2019-02-26T12:48:58.463Z,8.07
2019-02-26T12:51:31.772Z,6.00
2019-02-26T12:54:01.204Z,5.03
2019-02-26T12:56:33.973Z,5.67
2019-02-26T12:59:03.306Z,8.20
2019-02-26T13:01:33.369Z,5.20
2019-02-26T13:04:03.074Z,5.30
2019-02-26T13:06:34.221Z,6.57
2019-02-26T13:09:04.232Z,5.13
2019-02-26T13:11:33.931Z,4.03
2019-02-26T13:14:04.152Z,4.63
2019-02-26T13:16:33.518Z,4.33
2019-02-26T13:19:04.654Z,3.43
2019-02-26T13:21:33.840Z,4.13
2019-02-26T13:24:11.790Z,3.40
2019-02-26T13:26:36.394Z,3.20
2019-02-26T13:29:05.680Z,2.90
2019-02-26T13:31:41.745Z,2.77
2019-02-26T13:34:05.983Z,4.33
2019-02-26T13:36:36.917Z,5.70
2019-02-26T13:39:07.428Z,2.70
2019-02-26T13:41:38.980Z,3.50
2019-02-26T13:44:11.034Z,3.53
2019-02-26T13:46:40.630Z,6.00
2019-02-26T13:49:11.587Z,2.90
2019-02-26T13:51:41.228Z,3.50
2019-02-26T13:54:10.612Z,3.40
2019-02-26T13:56:39.800Z,3.67
2019-02-26T13:59:09.172Z,5.17
2019-02-26T14:01:38.891Z,7.00
2019-02-26T14:04:08.241Z,4.00
2019-02-26T14:06:37.921Z,6.60
2019-02-26T14:09:07.303Z,3.70
2019-02-26T14:11:36.609Z,3.90
2019-02-26T14:14:06.337Z,3.83
2019-02-26T14:16:38.641Z,6.40
2019-02-26T14:19:10.035Z,5.53
2019-02-26T14:21:39.760Z,3.10
2019-02-26T14:24:09.217Z,3.67
2019-02-26T14:26:38.497Z,3.70
2019-02-26T14:29:08.075Z,3.50
2019-02-26T14:31:37.451Z,3.47
2019-02-26T14:34:07.169Z,4.33
2019-02-26T14:36:36.790Z,3.57
2019-02-26T14:39:07.248Z,3.77
2019-02-26T14:41:36.626Z,4.13
2019-02-26T14:44:07.792Z,3.80
2019-02-26T14:46:37.117Z,4.27
2019-02-26T14:49:06.411Z,4.67
2019-02-26T14:51:37.847Z,4.63
2019-02-26T14:54:07.173Z,7.87
2019-02-26T14:56:36.455Z,3.83
2019-02-26T14:59:05.849Z,3.80
2019-02-26T15:01:35.499Z,3.83
2019-02-26T15:04:05.136Z,5.83
2019-02-26T15:06:34.425Z,3.93
2019-02-26T15:09:04.686Z,4.57
2019-02-26T15:11:34.378Z,8.23
2019-02-26T15:14:04.298Z,3.73
2019-02-26T15:16:34.133Z,5.80
2019-02-26T15:19:03.485Z,4.33
2019-02-26T15:21:32.761Z,3.17
2019-02-26T15:24:02.786Z,5.27
2019-02-26T15:26:32.126Z,3.40
2019-02-26T15:29:02.897Z,3.10
2019-02-26T15:31:32.869Z,4.40
2019-02-26T15:34:02.275Z,3.40
2019-02-26T15:36:32.433Z,3.23
2019-02-26T15:39:01.856Z,3.60
2019-02-26T15:41:31.220Z,4.40
2019-02-26T15:44:02.983Z,4.40
2019-02-26T15:46:32.377Z,5.93
2019-02-26T15:49:01.656Z,4.97
2019-02-26T15:51:31.121Z,5.57
2019-02-26T15:54:01.005Z,3.83
2019-02-26T15:56:30.357Z,6.27
2019-02-26T15:59:00.336Z,3.47
2019-02-26T16:01:30.034Z,4.67
2019-02-26T16:04:00.633Z,5.57
2019-02-26T16:06:29.918Z,5.40
2019-02-26T16:08:59.897Z,5.80
2019-02-26T16:11:29.767Z,8.37
2019-02-26T16:13:59.904Z,4.63
2019-02-26T16:16:31.666Z,3.00
2019-02-26T16:19:02.450Z,3.20
2019-02-26T16:21:32.121Z,4.07
2019-02-26T16:24:01.433Z,4.67
2019-02-26T16:26:33.863Z,3.63
2019-02-26T16:29:03.122Z,3.63
2019-02-26T16:31:32.429Z,4.33
2019-02-26T16:34:02.138Z,7.20
2019-02-26T16:36:32.182Z,4.60
2019-02-26T16:39:04.816Z,7.83
2019-02-26T16:41:38.047Z,6.07
2019-02-26T16:44:05.900Z,4.80
2019-02-26T16:46:39.607Z,3.73
2019-02-26T16:49:10.665Z,6.97
2019-02-26T16:51:40.015Z,6.67
2019-02-26T16:54:09.789Z,9.47
2019-02-26T16:56:40.172Z,6.10
2019-02-26T16:59:09.557Z,7.40
2019-02-26T17:01:42.953Z,4.70
2019-02-26T17:04:14.153Z,6.27
2019-02-26T17:06:43.539Z,4.70
2019-02-26T17:09:19.065Z,6.17
2019-02-26T17:11:49.504Z,7.77
2019-02-26T17:14:19.158Z,6.53
2019-02-26T17:16:48.819Z,6.87
2019-02-26T17:19:18.319Z,8.03
2019-02-26T17:21:47.707Z,7.87
2019-02-26T17:24:18.476Z,6.00
2019-02-26T17:26:48.495Z,7.33
2019-02-26T17:29:20.356Z,7.90
2019-02-26T17:31:51.474Z,6.73
2019-02-26T17:34:23.490Z,6.37
2019-02-26T17:36:54.684Z,7.10
2019-02-26T17:39:26.012Z,8.93
2019-02-26T17:41:55.100Z,7.53
2019-02-26T17:44:25.970Z,7.53
2019-02-26T17:46:55.379Z,8.87
2019-02-26T17:49:24.685Z,8.00
2019-02-26T17:51:54.040Z,11.10
2019-02-26T17:54:23.448Z,7.63
2019-02-26T17:56:52.793Z,11.07
2019-02-26T17:59:29.190Z,19.00
2019-02-26T18:01:58.564Z,13.60
2019-02-26T18:04:27.945Z,8.13
2019-02-26T18:07:00.403Z,9.00
2019-02-26T18:09:34.330Z,8.13
2019-02-26T18:12:02.321Z,9.40
2019-02-26T18:14:33.013Z,10.50
2019-02-26T18:17:02.554Z,8.20
2019-02-26T18:19:31.820Z,8.03
2019-02-26T18:22:03.296Z,8.77
2019-02-26T18:24:32.597Z,9.70
2019-02-26T18:27:01.908Z,7.47
2019-02-26T18:29:34.338Z,7.37
2019-02-26T18:32:03.634Z,8.80
2019-02-26T18:34:33.685Z,9.03
2019-02-26T18:37:03.627Z,7.40
2019-02-26T18:39:32.927Z,7.93
2019-02-26T18:42:07.611Z,9.73
2019-02-26T18:44:36.851Z,10.00
2019-02-26T18:47:07.915Z,7.20
2019-02-26T18:49:37.564Z,7.50
2019-02-26T18:52:10.469Z,7.07
2019-02-26T18:54:39.763Z,7.57
2019-02-26T18:57:11.544Z,6.80
2019-02-26T18:59:40.795Z,7.20
2019-02-26T19:02:10.858Z,11.20
2019-02-26T19:04:40.218Z,9.33
2019-02-26T19:07:32.976Z,8.53
2019-02-26T19:10:00.400Z,8.40
2019-02-26T19:12:30.573Z,8.13
2019-02-26T19:15:00.922Z,8.50
2019-02-26T19:17:30.885Z,7.53
2019-02-26T19:20:01.647Z,7.07
2019-02-26T19:22:31.075Z,9.13
2019-02-26T19:25:00.506Z,10.60
2019-02-26T19:27:32.155Z,7.70
2019-02-26T19:30:04.170Z,7.20
2019-02-26T19:32:36.828Z,7.53
2019-02-26T19:35:12.214Z,11.23
2019-02-26T19:37:39.867Z,7.20
2019-02-26T19:40:11.827Z,10.17
2019-02-26T19:42:42.706Z,8.07
2019-02-26T19:45:12.485Z,6.70
2019-02-26T19:47:45.511Z,7.83
2019-02-26T19:50:15.810Z,8.83
2019-02-26T19:52:45.172Z,9.67
2019-02-26T19:55:20.347Z,8.97
2019-02-26T19:57:50.527Z,11.67
2019-02-26T20:00:20.543Z,9.50
2019-02-26T20:02:50.404Z,10.90
2019-02-26T20:05:19.806Z,14.43
2019-02-26T20:07:49.902Z,9.67
2019-02-26T20:10:20.285Z,9.17
2019-02-26T20:12:50.921Z,13.97
2019-02-26T20:15:21.887Z,8.33
2019-02-26T20:17:52.815Z,10.67
2019-02-26T20:20:23.108Z,10.70
2019-02-26T20:22:55.163Z,9.63
2019-02-26T20:25:27.975Z,11.87
2019-02-26T20:28:04.819Z,9.90
2019-02-26T20:30:31.596Z,11.60
2019-02-26T20:33:01.619Z,8.80
2019-02-26T20:35:32.636Z,9.37
2019-02-26T20:38:02.002Z,9.33
2019-02-26T20:40:31.749Z,10.43
2019-02-26T20:43:01.904Z,10.03
2019-02-26T20:45:32.906Z,11.53
2019-02-26T20:48:04.232Z,11.60
2019-02-26T20:50:36.389Z,9.70
2019-02-26T20:53:06.521Z,12.47
2019-02-26T20:55:39.048Z,14.37
2019-02-26T20:58:09.621Z,12.70
2019-02-26T21:00:42.478Z,14.03
2019-02-26T21:03:13.544Z,10.40
2019-02-26T21:05:44.656Z,10.83
2019-02-26T21:08:14.104Z,10.93
2019-02-26T21:10:48.025Z,11.30
2019-02-26T21:13:20.592Z,16.73
2019-02-26T21:15:50.099Z,14.73
2019-02-26T21:18:19.923Z,13.43
2019-02-26T21:20:49.375Z,15.93
2019-02-26T21:23:19.148Z,14.93
2019-02-26T21:25:48.425Z,12.37
2019-02-26T21:28:18.083Z,14.17
2019-02-26T21:30:47.388Z,11.40
2019-02-26T21:33:18.312Z,12.20
2019-02-26T21:35:47.627Z,14.40
2019-02-26T21:38:18.506Z,12.87
2019-02-26T21:40:49.680Z,16.20
2019-02-26T21:43:19.271Z,13.13
2019-02-26T21:45:53.345Z,17.93
2019-02-26T21:48:23.748Z,15.17
2019-02-26T21:50:55.339Z,14.03
2019-02-26T21:53:25.377Z,15.80
2019-02-26T21:55:55.621Z,14.23
2019-02-26T21:58:26.830Z,13.37
2019-02-26T22:00:56.797Z,15.57
2019-02-26T22:03:28.554Z,13.73
2019-02-26T22:06:05.047Z,16.50
2019-02-26T22:08:29.155Z,13.13
2019-02-26T22:10:58.409Z,14.53
2019-02-26T22:13:29.279Z,13.40
2019-02-26T22:15:59.210Z,15.43
2019-02-26T22:18:30.848Z,16.33
2019-02-26T22:21:02.405Z,14.73
2019-02-26T22:23:34.061Z,15.13
2019-02-26T22:26:02.807Z,16.53
2019-02-26T22:28:35.177Z,14.83
2019-02-26T22:31:04.583Z,16.30
2019-02-26T22:33:34.352Z,16.97
2019-02-26T22:36:05.237Z,13.77
2019-02-26T22:38:34.576Z,14.93
2019-02-26T22:41:22.925Z,14.47
2019-02-26T22:43:53.618Z,14.17
2019-02-26T22:46:22.941Z,13.53
2019-02-26T22:48:52.581Z,15.23
2019-02-26T22:51:21.901Z,14.17
2019-02-26T22:53:51.274Z,15.17
2019-02-26T22:56:21.899Z,16.93
2019-02-26T22:58:53.188Z,15.43
2019-02-26T23:01:36.338Z,14.50
2019-02-26T23:04:03.702Z,14.90
2019-02-26T23:06:33.297Z,16.13
2019-02-26T23:09:03.771Z,15.53
2019-02-26T23:11:34.057Z,16.27
2019-02-26T23:14:04.927Z,17.03
2019-02-26T23:16:36.420Z,12.60
2019-02-26T23:19:05.998Z,14.63
2019-02-26T23:21:35.555Z,11.93
2019-02-26T23:24:05.310Z,12.60
2019-02-26T23:26:37.133Z,12.20
2019-02-26T23:29:07.139Z,14.20
2019-02-26T23:31:36.520Z,12.63
2019-02-26T23:34:09.552Z,13.30
2019-02-26T23:36:39.399Z,16.17
2019-02-26T23:39:11.038Z,13.60
2019-02-26T23:41:40.426Z,13.63
2019-02-26T23:44:09.742Z,14.47
2019-02-26T23:46:39.388Z,13.53
2019-02-26T23:49:08.988Z,12.23
2019-02-26T23:51:38.862Z,15.13
2019-02-26T23:54:08.229Z,14.73
2019-02-26T23:56:37.962Z,14.50
2019-02-26T23:59:11.584Z,16.03
